Terminal Aerodrome Forecast
Issued by NWS

Home | Current Version | Previous Version | Text Only | Print | Product List | Glossary On
Versions: 1 2 3 4 5 6 7 8 9 10 11 12 13 14 15 16 17 18 19 20 21 22 23 24 25 26 27 28 29 30 31 32 33 34 35 36 37
000
FTUS45 KBOI 180648 AAA
TAFMYL
TAF AMD
KMYL 180648Z 1807/1906 25010KT 6SM -SHSN OVC030
      TEMPO 1807/1811 2SM -SHSN OVC010
     FM181500 23007KT 5SM -SHSN BKN010 BKN025
      TEMPO 1818/1822 2SM -SHSN
     FM182200 VRB06KT P6SM VCSH SCT020 BKN035
      TEMPO 1822/1902 3SM -SHSN SCT015 BKN025=

USA.gov is the U.S. government's official web portal to all federal, state and local government web resources and services.